ボードー の空港の天気 - METARとTAF

Bodo Vi ( ENBO / BOO ) - ノルウェー ヌールラン県ボードー
飛行場実況気象(Metar)
観測時間01/18 10:20 CET (01/18 09:20 UTC)
風向・風速南東 8m/s
視程10km以上
天気現象
なし
気温-5℃
湿度49%
気圧996hPa
METARENBO 180920Z 13016KT CAVOK M05/M14 Q0996 TEMPO 10020G30KT
過去の天気等 Google飛行場航空写真 Wunderground天気予報

過去48時間のMETAR

飛行場予報(TAF)
発表時間: -
18日7時 CET ~ 19日3時 CET に一時的に
風向・風速東南東 13m/s 瞬間風速 18m/s
TAF ENBO 1806/1906 10020KT CAVOK
TEMPO 1806/1902 12025G35KT